sensor_id;sensor_type;location;lat;lon;timestamp;pressure;altitude;pressure_sealevel;temperature;humidity
56402;BME280;42299;35.160;26.100;2022-07-23T00:01:15;100785.41;;;25.92;45.81
56402;BME280;42299;35.160;26.100;2022-07-23T00:02:37;100782.72;;;25.92;45.67
56402;BME280;42299;35.160;26.100;2022-07-23T00:04:01;100788.19;;;25.90;45.60
56402;BME280;42299;35.160;26.100;2022-07-23T00:05:22;100782.03;;;25.87;45.76
56402;BME280;42299;35.160;26.100;2022-07-23T00:06:45;100791.19;;;25.84;45.80
56402;BME280;42299;35.160;26.100;2022-07-23T00:08:08;100781.38;;;25.82;45.87
56402;BME280;42299;35.160;26.100;2022-07-23T00:09:32;100794.88;;;25.82;46.15
56402;BME280;42299;35.160;26.100;2022-07-23T00:10:54;100796.88;;;25.78;45.97
56402;BME280;42299;35.160;26.100;2022-07-23T00:12:16;100787.94;;;25.76;46.05
56402;BME280;42299;35.160;26.100;2022-07-23T00:13:38;100788.88;;;25.75;46.30
56402;BME280;42299;35.160;26.100;2022-07-23T00:14:59;100781.66;;;25.75;46.09
56402;BME280;42299;35.160;26.100;2022-07-23T00:16:23;100778.81;;;25.78;46.26
56402;BME280;42299;35.160;26.100;2022-07-23T00:17:44;100780.19;;;25.87;46.10
56402;BME280;42299;35.160;26.100;2022-07-23T00:19:07;100780.88;;;25.92;46.10
56402;BME280;42299;35.160;26.100;2022-07-23T00:20:30;100775.47;;;25.92;45.94
56402;BME280;42299;35.160;26.100;2022-07-23T00:21:52;100766.38;;;25.93;45.78
56402;BME280;42299;35.160;26.100;2022-07-23T00:23:14;100775.31;;;25.95;45.94
56402;BME280;42299;35.160;26.100;2022-07-23T00:24:37;100778.06;;;25.94;45.90
56402;BME280;42299;35.160;26.100;2022-07-23T00:26:00;100772.81;;;25.91;45.74
56402;BME280;42299;35.160;26.100;2022-07-23T00:27:22;100775.59;;;25.89;46.03
56402;BME280;42299;35.160;26.100;2022-07-23T00:28:45;100770.34;;;25.86;45.94
56402;BME280;42299;35.160;26.100;2022-07-23T00:30:08;100775.00;;;25.83;46.11
56402;BME280;42299;35.160;26.100;2022-07-23T00:31:30;100776.13;;;25.78;46.40
56402;BME280;42299;35.160;26.100;2022-07-23T00:32:55;100776.19;;;25.77;46.31
56402;BME280;42299;35.160;26.100;2022-07-23T00:34:17;100774.47;;;25.74;46.41
56402;BME280;42299;35.160;26.100;2022-07-23T00:35:41;100776.41;;;25.72;46.43
56402;BME280;42299;35.160;26.100;2022-07-23T00:37:04;100776.25;;;25.75;46.18
56402;BME280;42299;35.160;26.100;2022-07-23T00:38:26;100778.88;;;25.77;46.24
56402;BME280;42299;35.160;26.100;2022-07-23T00:39:51;100778.88;;;25.77;46.17
56402;BME280;42299;35.160;26.100;2022-07-23T00:41:13;100768.06;;;25.77;46.08
56402;BME280;42299;35.160;26.100;2022-07-23T00:42:35;100769.91;;;25.76;46.50
56402;BME280;42299;35.160;26.100;2022-07-23T00:44:18;100771.00;;;25.72;46.49
56402;BME280;42299;35.160;26.100;2022-07-23T00:45:41;100777.63;;;25.65;46.42
56402;BME280;42299;35.160;26.100;2022-07-23T00:47:04;100774.25;;;25.60;46.77
56402;BME280;42299;35.160;26.100;2022-07-23T00:48:27;100769.00;;;25.57;46.81
56402;BME280;42299;35.160;26.100;2022-07-23T00:49:48;100766.47;;;25.53;46.96
56402;BME280;42299;35.160;26.100;2022-07-23T00:51:10;100772.00;;;25.50;47.06
56402;BME280;42299;35.160;26.100;2022-07-23T00:52:33;100769.53;;;25.45;47.15
56402;BME280;42299;35.160;26.100;2022-07-23T00:53:55;100777.81;;;25.40;47.20
56402;BME280;42299;35.160;26.100;2022-07-23T00:55:19;100766.16;;;25.40;47.48
56402;BME280;42299;35.160;26.100;2022-07-23T00:56:42;100774.34;;;25.38;47.32
56402;BME280;42299;35.160;26.100;2022-07-23T00:58:05;100765.56;;;25.33;47.27
56402;BME280;42299;35.160;26.100;2022-07-23T00:59:28;100777.38;;;25.31;47.37
56402;BME280;42299;35.160;26.100;2022-07-23T01:00:51;100772.03;;;25.29;47.42
56402;BME280;42299;35.160;26.100;2022-07-23T01:02:13;100769.50;;;25.26;47.61
56402;BME280;42299;35.160;26.100;2022-07-23T01:03:35;100769.63;;;25.23;47.55
56402;BME280;42299;35.160;26.100;2022-07-23T01:04:57;100771.50;;;25.21;47.49
56402;BME280;42299;35.160;26.100;2022-07-23T01:06:19;100774.28;;;25.20;47.73
56402;BME280;42299;35.160;26.100;2022-07-23T01:07:42;100777.00;;;25.20;47.84
56402;BME280;42299;35.160;26.100;2022-07-23T01:09:07;100777.88;;;25.20;47.97
56402;BME280;42299;35.160;26.100;2022-07-23T01:10:31;100775.22;;;25.19;47.83
56402;BME280;42299;35.160;26.100;2022-07-23T01:11:53;100769.00;;;25.17;47.62
56402;BME280;42299;35.160;26.100;2022-07-23T01:13:16;100770.97;;;25.13;47.76
56402;BME280;42299;35.160;26.100;2022-07-23T01:14:39;100766.47;;;25.14;47.83
56402;BME280;42299;35.160;26.100;2022-07-23T01:16:01;100771.94;;;25.12;48.01
56402;BME280;42299;35.160;26.100;2022-07-23T01:17:24;100769.28;;;25.11;47.87
56402;BME280;42299;35.160;26.100;2022-07-23T01:18:46;100765.16;;;25.02;47.96
56402;BME280;42299;35.160;26.100;2022-07-23T01:20:09;100772.75;;;24.94;48.17
56402;BME280;42299;35.160;26.100;2022-07-23T01:21:32;100772.84;;;24.91;48.29
56402;BME280;42299;35.160;26.100;2022-07-23T01:22:56;100775.50;;;24.92;48.37
56402;BME280;42299;35.160;26.100;2022-07-23T01:24:18;100762.00;;;24.92;48.38
56402;BME280;42299;35.160;26.100;2022-07-23T01:25:52;100766.47;;;24.93;48.57
56402;BME280;42299;35.160;26.100;2022-07-23T01:27:15;100769.16;;;24.93;48.49
56402;BME280;42299;35.160;26.100;2022-07-23T01:28:39;100769.16;;;24.93;48.43
56402;BME280;42299;35.160;26.100;2022-07-23T01:30:03;100766.56;;;24.90;48.50
56402;BME280;42299;35.160;26.100;2022-07-23T01:31:25;100760.53;;;24.84;48.71
56402;BME280;42299;35.160;26.100;2022-07-23T01:32:48;100773.41;;;24.77;48.72
56402;BME280;42299;35.160;26.100;2022-07-23T01:34:10;100773.69;;;24.71;48.94
56402;BME280;42299;35.160;26.100;2022-07-23T01:35:33;100776.44;;;24.70;49.14
56402;BME280;42299;35.160;26.100;2022-07-23T01:36:59;100773.78;;;24.68;49.22
56402;BME280;42299;35.160;26.100;2022-07-23T01:38:23;100770.25;;;24.68;49.28
56402;BME280;42299;35.160;26.100;2022-07-23T01:39:44;100771.31;;;24.63;49.06
56402;BME280;42299;35.160;26.100;2022-07-23T01:41:07;100768.81;;;24.59;49.16
56402;BME280;42299;35.160;26.100;2022-07-23T01:42:30;100771.44;;;24.60;49.08
56402;BME280;42299;35.160;26.100;2022-07-23T01:43:53;100773.28;;;24.60;49.18
56402;BME280;42299;35.160;26.100;2022-07-23T01:45:15;100769.69;;;24.59;49.42
56402;BME280;42299;35.160;26.100;2022-07-23T01:46:41;100771.44;;;24.60;49.03
56402;BME280;42299;35.160;26.100;2022-07-23T01:48:05;100769.63;;;24.61;49.26
56402;BME280;42299;35.160;26.100;2022-07-23T01:49:28;100767.88;;;24.60;49.28
56402;BME280;42299;35.160;26.100;2022-07-23T01:51:10;100775.19;;;24.56;49.46
56402;BME280;42299;35.160;26.100;2022-07-23T01:52:38;100775.19;;;24.56;49.52
56402;BME280;42299;35.160;26.100;2022-07-23T01:54:02;100775.09;;;24.59;49.28
56402;BME280;42299;35.160;26.100;2022-07-23T01:55:24;100772.44;;;24.58;49.25
56402;BME280;42299;35.160;26.100;2022-07-23T01:56:46;100781.53;;;24.55;49.54
56402;BME280;42299;35.160;26.100;2022-07-23T01:58:08;100781.75;;;24.51;49.53
56402;BME280;42299;35.160;26.100;2022-07-23T01:59:30;100775.66;;;24.46;49.62
56402;BME280;42299;35.160;26.100;2022-07-23T02:00:53;100786.41;;;24.47;49.69
56402;BME280;42299;35.160;26.100;2022-07-23T02:02:14;100782.81;;;24.47;49.81
56402;BME280;42299;35.160;26.100;2022-07-23T02:03:37;100790.91;;;24.47;49.59
56402;BME280;42299;35.160;26.100;2022-07-23T02:05:00;100783.75;;;24.46;49.88
56402;BME280;42299;35.160;26.100;2022-07-23T02:06:22;100789.09;;;24.47;49.82
56402;BME280;42299;35.160;26.100;2022-07-23T02:07:45;100789.00;;;24.49;49.71
56402;BME280;42299;35.160;26.100;2022-07-23T02:09:07;100788.06;;;24.50;49.65
56402;BME280;42299;35.160;26.100;2022-07-23T02:10:30;100784.38;;;24.52;49.63
56402;BME280;42299;35.160;26.100;2022-07-23T02:11:52;100780.66;;;24.55;49.84
56402;BME280;42299;35.160;26.100;2022-07-23T02:13:14;100786.06;;;24.55;49.59
56402;BME280;42299;35.160;26.100;2022-07-23T02:14:37;100774.47;;;24.53;49.87
56402;BME280;42299;35.160;26.100;2022-07-23T02:15:58;100778.16;;;24.50;49.91
56402;BME280;42299;35.160;26.100;2022-07-23T02:17:21;100784.59;;;24.48;50.03
56402;BME280;42299;35.160;26.100;2022-07-23T02:18:42;100782.88;;;24.45;49.83
56402;BME280;42299;35.160;26.100;2022-07-23T02:20:06;100782.03;;;24.43;50.10
56402;BME280;42299;35.160;26.100;2022-07-23T02:21:28;100780.22;;;24.44;50.00
56402;BME280;42299;35.160;26.100;2022-07-23T02:22:51;100783.81;;;24.44;50.18
56402;BME280;42299;35.160;26.100;2022-07-23T02:24:15;100782.03;;;24.43;49.96
56402;BME280;42299;35.160;26.100;2022-07-23T02:25:39;100783.00;;;24.42;50.15
56402;BME280;42299;35.160;26.100;2022-07-23T02:27:00;100785.69;;;24.42;50.04
56402;BME280;42299;35.160;26.100;2022-07-23T02:28:23;100781.16;;;24.43;50.18
56402;BME280;42299;35.160;26.100;2022-07-23T02:29:46;100773.94;;;24.43;50.17
56402;BME280;42299;35.160;26.100;2022-07-23T02:31:08;100773.00;;;24.44;50.18
56402;BME280;42299;35.160;26.100;2022-07-23T02:32:31;100770.38;;;24.43;50.24
56402;BME280;42299;35.160;26.100;2022-07-23T02:33:53;100770.31;;;24.44;50.44
56402;BME280;42299;35.160;26.100;2022-07-23T02:35:15;100772.06;;;24.45;50.35
56402;BME280;42299;35.160;26.100;2022-07-23T02:36:37;100775.50;;;24.49;50.39
56402;BME280;42299;35.160;26.100;2022-07-23T02:38:01;100774.56;;;24.50;50.33
56402;BME280;42299;35.160;26.100;2022-07-23T02:39:26;100775.41;;;24.52;50.30
56402;BME280;42299;35.160;26.100;2022-07-23T02:40:48;100774.41;;;24.54;50.28
56402;BME280;42299;35.160;26.100;2022-07-23T02:42:12;100776.13;;;24.55;50.31
56402;BME280;42299;35.160;26.100;2022-07-23T02:43:33;100775.19;;;24.56;50.32
56402;BME280;42299;35.160;26.100;2022-07-23T02:44:55;100776.13;;;24.55;50.32
56402;BME280;42299;35.160;26.100;2022-07-23T02:46:18;100776.34;;;24.51;50.28
56402;BME280;42299;35.160;26.100;2022-07-23T02:47:40;100779.09;;;24.49;50.41
56402;BME280;42299;35.160;26.100;2022-07-23T02:49:03;100777.41;;;24.47;50.39
56402;BME280;42299;35.160;26.100;2022-07-23T02:50:26;100777.53;;;24.44;50.32
56402;BME280;42299;35.160;26.100;2022-07-23T02:51:51;100778.41;;;24.44;50.35
56402;BME280;42299;35.160;26.100;2022-07-23T02:53:13;100783.00;;;24.42;50.68
56402;BME280;42299;35.160;26.100;2022-07-23T02:54:38;100783.97;;;24.41;50.83
56402;BME280;42299;35.160;26.100;2022-07-23T02:56:01;100776.66;;;24.43;50.73
56402;BME280;42299;35.160;26.100;2022-07-23T02:57:23;100784.75;;;24.43;50.81
56402;BME280;42299;35.160;26.100;2022-07-23T02:58:45;100781.16;;;24.43;50.71
56402;BME280;42299;35.160;26.100;2022-07-23T03:00:09;100787.44;;;24.43;50.69
56402;BME280;42299;35.160;26.100;2022-07-23T03:01:31;100784.91;;;24.40;50.75
56402;BME280;42299;35.160;26.100;2022-07-23T03:02:54;100784.00;;;24.40;50.71
56402;BME280;42299;35.160;26.100;2022-07-23T03:04:15;100777.78;;;24.38;51.00
56402;BME280;42299;35.160;26.100;2022-07-23T03:05:38;100775.22;;;24.35;50.89
56402;BME280;42299;35.160;26.100;2022-07-23T03:06:59;100777.97;;;24.33;51.04
56402;BME280;42299;35.160;26.100;2022-07-23T03:08:22;100776.16;;;24.34;51.13
56402;BME280;42299;35.160;26.100;2022-07-23T03:09:47;100780.53;;;24.36;50.76
56402;BME280;42299;35.160;26.100;2022-07-23T03:11:10;100779.66;;;24.36;50.90
56402;BME280;42299;35.160;26.100;2022-07-23T03:12:33;100777.84;;;24.36;50.82
56402;BME280;42299;35.160;26.100;2022-07-23T03:13:57;100774.25;;;24.36;50.70
56402;BME280;42299;35.160;26.100;2022-07-23T03:15:18;100773.47;;;24.34;50.64
56402;BME280;42299;35.160;26.100;2022-07-23T03:16:41;100778.94;;;24.32;50.86
56402;BME280;42299;35.160;26.100;2022-07-23T03:18:02;100780.78;;;24.30;50.61
56402;BME280;42299;35.160;26.100;2022-07-23T03:19:25;100781.69;;;24.31;50.99
56402;BME280;42299;35.160;26.100;2022-07-23T03:20:46;100779.81;;;24.33;50.92
56402;BME280;42299;35.160;26.100;2022-07-23T03:22:09;100783.34;;;24.35;50.72
56402;BME280;42299;35.160;26.100;2022-07-23T03:23:30;100777.97;;;24.33;50.83
56402;BME280;42299;35.160;26.100;2022-07-23T03:24:55;100784.31;;;24.32;50.83
56402;BME280;42299;35.160;26.100;2022-07-23T03:26:22;100788.72;;;24.35;50.78
56402;BME280;42299;35.160;26.100;2022-07-23T03:27:47;100786.13;;;24.32;50.90
56402;BME280;42299;35.160;26.100;2022-07-23T03:29:09;100787.03;;;24.32;50.85
56402;BME280;42299;35.160;26.100;2022-07-23T03:30:31;100788.84;;;24.32;51.06
56402;BME280;42299;35.160;26.100;2022-07-23T03:31:53;100783.50;;;24.30;51.00
56402;BME280;42299;35.160;26.100;2022-07-23T03:33:16;100784.31;;;24.32;51.12
56402;BME280;42299;35.160;26.100;2022-07-23T03:34:39;100790.44;;;24.36;51.00
56402;BME280;42299;35.160;26.100;2022-07-23T03:36:01;100792.91;;;24.42;50.78
56402;BME280;42299;35.160;26.100;2022-07-23T03:37:27;100798.81;;;24.51;50.73
56402;BME280;42299;35.160;26.100;2022-07-23T03:38:52;100798.44;;;24.60;50.40
56402;BME280;42299;35.160;26.100;2022-07-23T03:40:16;100796.22;;;24.70;50.39
56402;BME280;42299;35.160;26.100;2022-07-23T03:41:38;100800.22;;;24.82;50.20
56402;BME280;42299;35.160;26.100;2022-07-23T03:43:01;100798.06;;;24.91;49.89
56402;BME280;42299;35.160;26.100;2022-07-23T03:44:23;100798.59;;;24.99;50.00
56402;BME280;42299;35.160;26.100;2022-07-23T03:45:45;100802.66;;;25.10;49.49
56402;BME280;42299;35.160;26.100;2022-07-23T03:47:07;100797.59;;;25.22;49.19
56402;BME280;42299;35.160;26.100;2022-07-23T03:48:28;100807.78;;;25.36;48.95
56402;BME280;42299;35.160;26.100;2022-07-23T03:49:51;100800.94;;;25.48;49.01
56402;BME280;42299;35.160;26.100;2022-07-23T03:51:12;100805.84;;;25.60;48.86
56402;BME280;42299;35.160;26.100;2022-07-23T03:52:35;100800.06;;;25.67;48.46
56402;BME280;42299;35.160;26.100;2022-07-23T03:53:56;100813.09;;;25.78;48.59
56402;BME280;42299;35.160;26.100;2022-07-23T03:55:20;100802.66;;;25.89;48.16
56402;BME280;42299;35.160;26.100;2022-07-23T03:56:43;100803.00;;;26.00;48.35
56402;BME280;42299;35.160;26.100;2022-07-23T03:58:04;100804.34;;;26.10;47.95
56402;BME280;42299;35.160;26.100;2022-07-23T03:59:26;100807.41;;;26.22;47.86
56402;BME280;42299;35.160;26.100;2022-07-23T04:00:49;100801.41;;;26.34;47.78
56402;BME280;42299;35.160;26.100;2022-07-23T04:02:12;100810.88;;;26.44;47.72
56402;BME280;42299;35.160;26.100;2022-07-23T04:03:33;100799.56;;;26.53;47.57
56402;BME280;42299;35.160;26.100;2022-07-23T04:04:56;100802.63;;;26.64;47.37
56402;BME280;42299;35.160;26.100;2022-07-23T04:06:18;100804.78;;;26.75;47.42
56402;BME280;42299;35.160;26.100;2022-07-23T04:07:40;100801.53;;;26.85;47.18
56402;BME280;42299;35.160;26.100;2022-07-23T04:09:03;100796.47;;;26.96;47.07
56402;BME280;42299;35.160;26.100;2022-07-23T04:10:27;100799.56;;;27.06;46.66
56402;BME280;42299;35.160;26.100;2022-07-23T04:11:50;100801.75;;;27.17;46.62
56402;BME280;42299;35.160;26.100;2022-07-23T04:13:14;100806.66;;;27.26;46.46
56402;BME280;42299;35.160;26.100;2022-07-23T04:14:36;100802.59;;;27.34;46.40
56402;BME280;42299;35.160;26.100;2022-07-23T04:15:58;100802.81;;;27.47;46.23
56402;BME280;42299;35.160;26.100;2022-07-23T04:17:20;100795.00;;;27.58;46.04
56402;BME280;42299;35.160;26.100;2022-07-23T04:18:43;100795.38;;;27.68;46.11
56402;BME280;42299;35.160;26.100;2022-07-23T04:20:11;100802.84;;;27.80;46.00
56402;BME280;42299;35.160;26.100;2022-07-23T04:21:40;100807.53;;;27.94;45.73
56402;BME280;42299;35.160;26.100;2022-07-23T04:23:03;100804.03;;;28.07;45.58
56402;BME280;42299;35.160;26.100;2022-07-23T04:24:25;100801.53;;;28.20;45.39
56402;BME280;42299;35.160;26.100;2022-07-23T04:25:49;100804.50;;;28.31;45.07
56402;BME280;42299;35.160;26.100;2022-07-23T04:27:11;100803.78;;;28.43;44.93
56402;BME280;42299;35.160;26.100;2022-07-23T04:28:34;100805.78;;;28.55;44.67
56402;BME280;42299;35.160;26.100;2022-07-23T04:29:56;100805.09;;;28.68;44.36
56402;BME280;42299;35.160;26.100;2022-07-23T04:31:19;100804.13;;;28.84;44.27
56402;BME280;42299;35.160;26.100;2022-07-23T04:32:40;100792.34;;;29.00;44.08
56402;BME280;42299;35.160;26.100;2022-07-23T04:34:10;100806.00;;;29.14;43.54
56402;BME280;42299;35.160;26.100;2022-07-23T04:35:32;100800.84;;;29.23;43.20
56402;BME280;42299;35.160;26.100;2022-07-23T04:37:04;100802.84;;;29.36;42.74
56402;BME280;42299;35.160;26.100;2022-07-23T04:38:27;100804.78;;;29.48;42.47
56402;BME280;42299;35.160;26.100;2022-07-23T04:39:53;100813.84;;;29.62;42.34
56402;BME280;42299;35.160;26.100;2022-07-23T04:41:20;100808.13;;;29.81;42.13
56402;BME280;42299;35.160;26.100;2022-07-23T04:42:42;100803.50;;;29.97;41.83
56402;BME280;42299;35.160;26.100;2022-07-23T04:44:05;100817.75;;;30.15;41.79
56402;BME280;42299;35.160;26.100;2022-07-23T04:45:26;100810.75;;;30.25;41.35
56402;BME280;42299;35.160;26.100;2022-07-23T04:46:49;100815.06;;;30.42;41.20
56402;BME280;42299;35.160;26.100;2022-07-23T04:48:11;100808.94;;;30.53;40.49
56402;BME280;42299;35.160;26.100;2022-07-23T04:49:33;100811.06;;;30.62;40.50
56402;BME280;42299;35.160;26.100;2022-07-23T04:50:56;100808.47;;;30.73;40.28
56402;BME280;42299;35.160;26.100;2022-07-23T04:52:20;100810.28;;;30.86;39.77
56402;BME280;42299;35.160;26.100;2022-07-23T04:53:43;100806.69;;;30.99;39.10
56402;BME280;42299;35.160;26.100;2022-07-23T04:55:06;100816.69;;;31.12;38.88
56402;BME280;42299;35.160;26.100;2022-07-23T04:56:30;100807.66;;;31.24;38.50
56402;BME280;42299;35.160;26.100;2022-07-23T04:57:53;100803.53;;;31.32;38.17
56402;BME280;42299;35.160;26.100;2022-07-23T04:59:15;100808.00;;;31.45;38.11
56402;BME280;42299;35.160;26.100;2022-07-23T05:00:38;100813.06;;;31.64;37.39
56402;BME280;42299;35.160;26.100;2022-07-23T05:02:00;100809.47;;;31.89;36.97
56402;BME280;42299;35.160;26.100;2022-07-23T05:03:23;100812.09;;;32.16;36.81
56402;BME280;42299;35.160;26.100;2022-07-23T05:04:47;100800.56;;;32.36;36.16
56402;BME280;42299;35.160;26.100;2022-07-23T05:06:10;100810.66;;;32.47;35.84
56402;BME280;42299;35.160;26.100;2022-07-23T05:07:33;100796.84;;;32.61;35.68
56402;BME280;42299;35.160;26.100;2022-07-23T05:08:54;100811.13;;;32.64;35.50
56402;BME280;42299;35.160;26.100;2022-07-23T05:10:17;100810.38;;;32.75;35.28
56402;BME280;42299;35.160;26.100;2022-07-23T05:11:41;100813.56;;;32.93;35.34
56402;BME280;42299;35.160;26.100;2022-07-23T05:13:04;100799.81;;;33.16;34.52
56402;BME280;42299;35.160;26.100;2022-07-23T05:14:25;100805.63;;;33.36;34.23
56402;BME280;42299;35.160;26.100;2022-07-23T05:15:49;100816.13;;;33.53;34.14
56402;BME280;42299;35.160;26.100;2022-07-23T05:17:11;100812.16;;;33.68;33.80
56402;BME280;42299;35.160;26.100;2022-07-23T05:18:33;100808.72;;;33.77;33.81
56402;BME280;42299;35.160;26.100;2022-07-23T05:19:56;100807.22;;;33.95;33.53
56402;BME280;42299;35.160;26.100;2022-07-23T05:21:18;100809.31;;;34.14;33.18
56402;BME280;42299;35.160;26.100;2022-07-23T05:22:42;100806.47;;;34.27;32.93
56402;BME280;42299;35.160;26.100;2022-07-23T05:24:05;100812.97;;;34.37;32.95
56402;BME280;42299;35.160;26.100;2022-07-23T05:25:28;100815.91;;;34.56;32.74
56402;BME280;42299;35.160;26.100;2022-07-23T05:26:52;100802.03;;;34.69;32.54
56402;BME280;42299;35.160;26.100;2022-07-23T05:28:16;100801.53;;;34.75;32.26
56402;BME280;42299;35.160;26.100;2022-07-23T05:29:38;100809.13;;;34.83;32.00
56402;BME280;42299;35.160;26.100;2022-07-23T05:31:02;100818.44;;;34.91;31.83
56402;BME280;42299;35.160;26.100;2022-07-23T05:32:25;100810.28;;;35.01;31.83
56402;BME280;42299;35.160;26.100;2022-07-23T05:34:00;100813.25;;;35.09;31.17
56402;BME280;42299;35.160;26.100;2022-07-23T05:35:23;100815.00;;;35.10;31.02
56402;BME280;42299;35.160;26.100;2022-07-23T05:36:59;100820.44;;;35.21;30.72
56402;BME280;42299;35.160;26.100;2022-07-23T05:38:21;100819.66;;;35.30;30.54
56402;BME280;42299;35.160;26.100;2022-07-23T05:39:44;100809.97;;;35.15;30.50
56402;BME280;42299;35.160;26.100;2022-07-23T05:41:07;100809.34;;;35.23;30.55
56402;BME280;42299;35.160;26.100;2022-07-23T05:42:31;100818.38;;;35.34;30.50
56402;BME280;42299;35.160;26.100;2022-07-23T05:43:53;100811.56;;;35.29;30.44
56402;BME280;42299;35.160;26.100;2022-07-23T05:45:16;100822.06;;;35.24;30.21
56402;BME280;42299;35.160;26.100;2022-07-23T05:46:39;100824.94;;;35.22;30.48
56402;BME280;42299;35.160;26.100;2022-07-23T05:48:05;100812.97;;;35.23;30.38
56402;BME280;42299;35.160;26.100;2022-07-23T05:49:33;100808.69;;;35.30;30.36
56402;BME280;42299;35.160;26.100;2022-07-23T05:51:23;100807.59;;;35.42;30.22
56402;BME280;42299;35.160;26.100;2022-07-23T05:52:46;100804.78;;;35.53;30.22
56402;BME280;42299;35.160;26.100;2022-07-23T05:54:34;100811.47;;;35.61;30.01
56402;BME280;42299;35.160;26.100;2022-07-23T05:55:57;100812.66;;;35.68;30.28
56402;BME280;42299;35.160;26.100;2022-07-23T05:57:19;100818.78;;;35.71;29.81
56402;BME280;42299;35.160;26.100;2022-07-23T05:58:43;100809.84;;;35.79;29.85
56402;BME280;42299;35.160;26.100;2022-07-23T06:00:07;100811.50;;;35.91;30.02
56402;BME280;42299;35.160;26.100;2022-07-23T06:01:34;100805.63;;;35.95;29.80
56402;BME280;42299;35.160;26.100;2022-07-23T06:03:03;100809.22;;;35.96;29.46
56402;BME280;42299;35.160;26.100;2022-07-23T06:04:26;100809.63;;;35.91;29.78
56402;BME280;42299;35.160;26.100;2022-07-23T06:06:09;100819.84;;;35.80;29.78
56402;BME280;42299;35.160;26.100;2022-07-23T06:07:33;100825.41;;;35.89;29.68
56402;BME280;42299;35.160;26.100;2022-07-23T06:08:55;100809.78;;;35.90;29.79
56402;BME280;42299;35.160;26.100;2022-07-23T06:10:18;100811.38;;;35.92;29.65
56402;BME280;42299;35.160;26.100;2022-07-23T06:11:40;100818.16;;;35.88;29.23
56402;BME280;42299;35.160;26.100;2022-07-23T06:13:03;100812.59;;;35.79;29.16
56402;BME280;42299;35.160;26.100;2022-07-23T06:14:27;100817.38;;;35.77;29.18
56402;BME280;42299;35.160;26.100;2022-07-23T06:15:51;100818.53;;;35.74;29.11
56402;BME280;42299;35.160;26.100;2022-07-23T06:17:14;100818.09;;;35.79;29.31
56402;BME280;42299;35.160;26.100;2022-07-23T06:18:36;100808.97;;;35.78;28.85
56402;BME280;42299;35.160;26.100;2022-07-23T06:19:59;100811.34;;;35.83;28.91
56402;BME280;42299;35.160;26.100;2022-07-23T06:21:21;100814.72;;;35.96;28.80
56402;BME280;42299;35.160;26.100;2022-07-23T06:22:43;100814.75;;;36.06;28.63
56402;BME280;42299;35.160;26.100;2022-07-23T06:24:06;100821.41;;;36.03;28.50
56402;BME280;42299;35.160;26.100;2022-07-23T06:25:27;100831.84;;;35.79;28.79
56402;BME280;42299;35.160;26.100;2022-07-23T06:26:50;100818.28;;;35.87;28.78
56402;BME280;42299;35.160;26.100;2022-07-23T06:28:12;100813.72;;;35.97;28.45
56402;BME280;42299;35.160;26.100;2022-07-23T06:29:38;100823.69;;;35.98;28.37
56402;BME280;42299;35.160;26.100;2022-07-23T06:31:01;100822.69;;;35.99;28.40
56402;BME280;42299;35.160;26.100;2022-07-23T06:32:24;100823.44;;;36.11;28.57
56402;BME280;42299;35.160;26.100;2022-07-23T06:33:46;100823.28;;;36.23;28.25
56402;BME280;42299;35.160;26.100;2022-07-23T06:35:08;100822.72;;;36.39;28.36
56402;BME280;42299;35.160;26.100;2022-07-23T06:36:31;100839.41;;;36.57;28.45
56402;BME280;42299;35.160;26.100;2022-07-23T06:37:53;100825.38;;;36.60;28.45
56402;BME280;42299;35.160;26.100;2022-07-23T06:39:16;100823.19;;;36.54;28.80
56402;BME280;42299;35.160;26.100;2022-07-23T06:40:42;100832.31;;;36.54;28.91
56402;BME280;42299;35.160;26.100;2022-07-23T06:42:05;100833.91;;;36.57;28.76
56402;BME280;42299;35.160;26.100;2022-07-23T06:43:32;100827.09;;;36.42;28.98
56402;BME280;42299;35.160;26.100;2022-07-23T06:44:56;100831.09;;;36.28;29.17
56402;BME280;42299;35.160;26.100;2022-07-23T06:46:19;100823.94;;;36.16;29.34
56402;BME280;42299;35.160;26.100;2022-07-23T06:47:42;100827.50;;;36.07;29.42
56402;BME280;42299;35.160;26.100;2022-07-23T06:49:04;100823.69;;;35.98;29.54
56402;BME280;42299;35.160;26.100;2022-07-23T06:50:25;100826.72;;;35.95;29.51
56402;BME280;42299;35.160;26.100;2022-07-23T06:51:48;100827.47;;;35.97;29.36
56402;BME280;42299;35.160;26.100;2022-07-23T06:53:10;100822.56;;;36.01;29.21
56402;BME280;42299;35.160;26.100;2022-07-23T06:54:42;100831.34;;;35.94;29.08
56402;BME280;42299;35.160;26.100;2022-07-23T06:56:04;100823.84;;;35.97;29.33
56402;BME280;42299;35.160;26.100;2022-07-23T06:57:27;100821.88;;;36.08;29.10
56402;BME280;42299;35.160;26.100;2022-07-23T06:58:50;100828.56;;;36.15;29.05
56402;BME280;42299;35.160;26.100;2022-07-23T07:00:13;100815.06;;;36.12;29.09
56402;BME280;42299;35.160;26.100;2022-07-23T07:01:36;100822.75;;;36.09;29.18
56402;BME280;42299;35.160;26.100;2022-07-23T07:02:57;100830.00;;;36.10;29.04
56402;BME280;42299;35.160;26.100;2022-07-23T07:04:20;100822.44;;;36.12;28.80
56402;BME280;42299;35.160;26.100;2022-07-23T07:05:42;100830.66;;;36.23;28.65
56402;BME280;42299;35.160;26.100;2022-07-23T07:07:05;100824.91;;;36.36;28.80
56402;BME280;42299;35.160;26.100;2022-07-23T07:08:27;100824.47;;;36.40;28.50
56402;BME280;42299;35.160;26.100;2022-07-23T07:09:49;100822.84;;;36.38;28.39
56402;BME280;42299;35.160;26.100;2022-07-23T07:11:11;100819.66;;;36.23;28.20